EST,Max TemperatureF,Mean TemperatureF,Min TemperatureF,Max Dew PointF,MeanDew PointF,Min DewpointF,Max Humidity, Mean Humidity, Min Humidity, Max Sea Level PressureIn, Mean Sea Level PressureIn, Min Sea Level PressureIn, Max VisibilityMiles, Mean VisibilityMiles, Min VisibilityMiles, Max Wind SpeedMPH, Mean Wind SpeedMPH, Max Gust SpeedMPH,PrecipitationIn, CloudCover, Events, WindDirDegrees
2013-1-1,39,32,24,28,20,9,75,59,45,29.93,29.80,29.75,10,10,10,16,8,26,0.00,2,,254
2013-1-2,32,24,17,18,10,5,69,54,44,30.09,29.98,29.90,10,10,10,16,7,25,0.00,1,,276
2013-1-3,28,18,8,12,2,-2,68,49,29,30.15,30.09,30.01,10,10,9,10,6,17,0.00,1,,261
2013-1-4,39,30,21,25,21,12,74,62,45,30.00,29.91,29.83,10,10,10,14,7,24,0.00,0,,228
2013-1-5,42,34,26,23,21,18,80,61,39,30.27,30.10,29.88,10,10,10,14,6,23,0.00,1,,252
2013-1-6,44,35,26,32,29,21,100,81,57,30.23,30.05,29.95,10,9,2,13,3,22,0.00,3,Rain-Snow,221
2013-1-7,39,32,26,32,28,23,100,84,70,30.42,30.25,29.98,10,9,2,13,5,22,0.00,2,,288
2013-1-8,48,38,28,32,31,27,93,74,50,30.39,30.34,30.28,10,10,10,18,7,30,0.00,0,Rain,211
2013-1-9,46,37,28,37,32,27,100,80,57,30.41,30.24,30.02,10,8,2,13,4,24,0.00,0,Rain,222
2013-1-10,48,42,35,32,25,23,70,51,37,30.54,30.35,30.06,10,10,10,16,10,29,0.00,0,,291
2013-1-11,42,36,30,37,31,27,93,81,66,30.53,30.41,30.24,10,10,5,9,4,,0.00,2,Rain,144
2013-1-12,46,42,39,45,41,37,100,93,87,30.25,30.18,30.14,10,8,0,8,3,,0.00,8,Fog-Rain,121
2013-1-13,53,48,42,54,48,43,100,96,88,30.17,30.11,30.02,10,6,0,12,3,20,0.00,8,Fog,185
2013-1-14,62,52,39,54,45,30,100,74,41,30.27,30.06,29.91,10,10,3,14,8,23,0.01,5,Rain,248
2013-1-15,42,40,37,37,32,30,93,75,65,30.32,30.27,30.23,10,10,9,7,3,,0.03,4,Rain,323
2013-1-16,41,37,33,37,34,30,100,92,70,30.25,29.99,29.80,10,5,0,7,3,,0.39,8,Rain-Snow,339
2013-1-17,44,38,32,34,30,18,100,75,53,30.10,29.98,29.86,10,10,10,13,5,21,0.00,2,,258
2013-1-18,32,26,19,18,3,-6,63,38,25,30.48,30.31,30.06,10,10,8,15,9,28,0.00,2,Rain-Snow,292
2013-1-19,48,36,23,34,27,10,75,60,50,30.43,30.14,29.93,10,10,10,22,9,34,0.00,2,,197
2013-1-20,55,44,32,36,28,10,66,51,34,29.93,29.74,29.56,10,10,10,23,13,38,0.00,0,,231
2013-1-21,32,28,24,27,12,5,93,53,34,30.12,30.00,29.79,10,8,2,13,6,21,0.00,3,Rain-Snow,245
2013-1-22,28,22,17,27,11,0,93,60,31,30.08,29.89,29.75,10,9,2,15,6,28,0.01,2,Rain-Snow,267
2013-1-23,19,14,10,3,-5,-9,67,44,28,30.16,30.12,30.08,10,10,10,15,7,25,0.00,0,,262
2013-1-24,23,14,6,-6,-8,-11,48,37,24,30.21,30.12,30.06,10,10,10,17,8,29,0.00,0,,273
2013-1-25,28,19,10,18,-4,-9,93,37,21,30.30,30.21,30.07,10,10,2,12,7,20,0.00,1,Snow,258
2013-1-26,28,22,15,18,7,-4,93,58,31,30.23,30.07,30.00,10,10,3,14,6,22,0.00,3,Rain-Snow,286
2013-1-27,32,23,14,5,2,-2,62,41,27,30.47,30.37,30.23,10,10,10,14,8,22,0.00,0,,280
2013-1-28,33,24,15,32,14,1,100,64,27,30.46,30.28,30.02,10,8,1,8,3,,0.06,4,Rain-Snow,174
2013-1-29,35,34,32,34,33,30,100,97,87,30.22,30.14,30.01,10,6,0,7,2,,0.04,8,Fog-Rain-Snow,305
2013-1-30,62,48,33,57,50,34,100,89,82,30.17,29.81,29.52,10,10,1,23,9,43,0.02,8,,176
2013-1-31,62,48,33,57,40,16,94,67,37,29.61,29.31,29.02,10,9,2,32,18,52,0.54,6,Rain,222